Morson, Canada
Current Conditions -  °F | °C
As of 10:53 PM on Thursday 30 Oct 2014 (Local Time) from KBDE Reporting Station
Overcast Overcast  
Wind Chill: 21°   Ceiling: 3800
Heat Index: 30°   Visibility: 10mi
Dew Point: 17°   Wind: 12mph
Humidity: 59%   Direction: 10°N
Pressure: 30.48"   Gusts: NA
Location:  49.1°N, 94.32°W
Report Text: KBDE 310353Z AUTO 01010KT 10SM OVC038 M01/M08 A3048 RMK AO2 SLP336 T10111083 TSNO
Loading
Personal Weather Stations






























Interactive Weather Map
Tropical Storm Tracking
New forecast layout! Learn more

10-Day Weather Forecast

Advertisements
Track Severe Weather on mobile